Theodosia, Missouri
Current Conditions -  °F | °C
As of 8:53 PM on Friday 28 Nov 2014 (Local Time) from KBPK Reporting Station
Clear Clear  
Wind Chill: 45°   Ceiling: Unl
Heat Index: 49°   Visibility: 10mi
Dew Point: 36°   Wind: 8mph
Humidity: 61%   Direction: 190°S
Pressure: 29.96"   Gusts: NA
Location:  36.58°N, 92.68°W
Report Text: KBPK 290253Z AUTO 19007KT 10SM CLR 09/02 A2996 RMK AO2 SLPNO T00940022 56009
Loading
Personal Weather Stations






























Interactive Weather Map New forecast layout! Learn more

10-Day Weather Forecast

Advertisements
Track Severe Weather on mobile